• Join FlightAware (Why Join?)
  • Login
  • US Flag 
05:25AM EST


 

Airport Tracker/Info


-or-


 

Live Flight TrackerFlight Track Log ✈ ASQ5941 ✈ 13-Apr-2013 ✈ KORD - KAVP

Flight Track Log - Related Links

Times and Time Zones

All times are in EDT time to prevent confusion due to time zone crossing. See the ASQ5941 flight status page for this flight to view local times or setup timezone preferences in your user account.

Time Position Orientation Groundspeed Altitude Reporting Facility
EDT Latitude Longitude Course Direction KTS MPH feet Rate Location/Type
02:55PM 42.0000 -87.9333 80° East 163 188 1,700  Level Chicago TRACON
02:56PM 42.0500 -87.9000 26° Northeast 237 273 3,900 2,100 Climbing Chicago TRACON
02:58PM 42.0451 -87.4211 83° East  Level FlightAware Approximate
02:58PM 42.1297 -87.8036 42° Northeast 260 299 7,300  Level Chicago Center
02:59PM 42.0668 -87.2577 78° East  Level FlightAware Approximate
02:59PM 42.1514 -87.7011 74° East 292 336 9,300  Level Chicago Center
03:00PM 42.0925 -87.0951 77° East  Level FlightAware Approximate
03:00PM 42.1531 -87.5783 89° East 322 371 11,100  Level Chicago Center
03:01PM 42.1087 -86.9309 80° East  Level FlightAware Approximate
03:01PM 42.1428 -87.4244 95° East 346 398 13,300  Level Chicago Center
03:02PM 42.1406 -87.2869 91° East 363 418 14,400 960 Climbing Chicago Center
03:03PM 42.1464 -87.1389 87° East 391 450 15,300 900 Climbing Chicago Center
03:04PM 42.1519 -86.9839 87° East 413 475 16,300 960 Climbing Chicago Center
03:05PM 42.1575 -86.8264 87° East 422 486 17,300 960 Climbing Chicago Center
03:06PM 42.1567 -86.6714 90° East 430 495 18,300 1,020 Climbing Chicago Center
03:07PM 42.1581 -86.4722 89° East 440 506 19,500 1,020 Climbing Chicago Center
03:08PM 42.1581 -86.3053 90° East 444 511 20,500 960 Climbing Chicago Center
03:09PM 42.1586 -86.1353 90° East 452 520 21,500 960 Climbing Chicago Center
03:10PM 42.1586 -85.9639 90° East 456 525 22,500 900 Climbing Chicago Center
03:11PM 42.1583 -85.8097 90° East 453 521 23,400 1,020 Climbing Chicago Center
03:12PM 42.1575 -85.6061 90° East 455 524 24,600 1,020 Climbing Chicago Center
03:13PM 42.1556 -85.4358 91° East 457 526 25,600 960 Climbing Chicago Center
03:14PM 42.1558 -85.2661 90° East 456 525 26,600 960 Climbing Chicago Center
03:15PM 42.1553 -85.0944 90° East 461 531 27,600 900 Climbing Chicago Center
03:16PM 42.1536 -84.9272 91° East 451 519 28,500 900 Climbing Chicago Center
03:17PM 42.1519 -84.7597 91° East 446 513 29,500 840 Climbing Chicago Center
03:18PM 42.1503 -84.5883 91° East 456 525 30,300 660 Climbing Chicago Center
03:19PM 42.1447 -84.3950 92° East 452 520 30,900 540 Climbing Cleveland Center
03:20PM 42.1425 -84.2100 91° East 478 550 31,400 480 Climbing Cleveland Center
03:21PM 42.1397 -84.0278 91° East 488 562 31,900 480 Climbing Cleveland Center
03:22PM 42.1369 -83.8342 91° East 499 574 32,400 600 Climbing Cleveland Center
03:23PM 42.1317 -83.6436 92° East 504 580 33,100 720 Climbing Cleveland Center
03:24PM 42.1283 -83.4531 91° East 504 580 33,900 600 Climbing Cleveland Center
03:25PM 42.1242 -83.2792 92° East 509 586 34,400 480 Climbing Cleveland Center
03:26PM 42.1181 -83.0886 92° East 509 586 34,900 300 Climbing Cleveland Center
03:27PM 42.1139 -82.8925 92° East 517 595 35,000  Climbing Cleveland Center
03:28PM 42.1053 -82.6961 93° East 522 601 35,000  Level Cleveland Center
03:29PM 42.0981 -82.5000 93° East 522 601 35,000  Level Cleveland Center
03:30PM 42.0992 -82.3014 90° East 522 601 35,000  Level Cleveland Center
03:31PM 42.0878 -82.0883 94° East 522 601 35,000  Level Cleveland Center
03:32PM 42.0817 -81.8925 92° East 522 601 35,000  Level Cleveland Center
03:33PM 42.0756 -81.6908 92° East 522 601 35,000  Level Cleveland Center
03:34PM 42.0669 -81.4922 93° East 531 611 35,000  Level Cleveland Center
03:35PM 42.0578 -81.2906 93° East 536 617 35,000  Level Cleveland Center
03:36PM 42.0506 -81.0950 93° East 536 617 35,000  Level Cleveland Center
03:37PM 42.0408 -80.9158 94° East 536 617 35,000  Level Cleveland Center
03:38PM 42.0328 -80.7200 93° East 536 617 35,000  Level Cleveland Center
03:39PM 42.0244 -80.5161 93° East 531 611 35,000  Level Cleveland Center
03:40PM 42.0158 -80.3206 93° East 531 611 35,000  Level Cleveland Center
03:41PM 42.0050 -80.1222 94° East 537 618 35,000  Level Cleveland Center
03:42PM 41.9933 -79.9072 94° East 532 612 35,000  Level Cleveland Center
03:43PM 41.9836 -79.7061 94° East 532 612 35,000 -240 Level Cleveland Center
03:44PM 41.9717 -79.5108 95° East 532 612 34,600 -600 Descending Cleveland Center
03:45PM 41.9614 -79.3100 94° East 532 612 33,900 -780 Descending Cleveland Center
03:46PM 41.9486 -79.1119 95° East 532 612 33,100 -480 Descending Cleveland Center
03:47PM 41.9353 -78.9139 95° East 532 612 33,000 -300 Descending Cleveland Center
03:49PM 41.9167 -78.7189 90° East  Level FlightAware Approximate
03:49PM 41.9103 -78.5211 90° East 532 612 32,300  Level Cleveland Center
03:50PM 41.8983 -78.3264 95° East 532 612 31,300 -1,020 Descending Cleveland Center
03:51PM 41.8775 -78.1289 98° East 532 612 30,300 -960 Descending Cleveland Center
03:52PM 41.8606 -78.0175 102° East 532 612 29,800 -1,620 Descending New York Center
03:53PM 41.8328 -77.8222 101° East 525 604 27,800 -2,040 Descending New York Center
03:54PM 41.8019 -77.6381 103° East 519 597 25,800 -1,980 Descending New York Center
03:55PM 41.7731 -77.4517 102° East 514 592 23,900 -1,440 Descending New York Center
03:56PM 41.7414 -77.2706 103° East 508 585 23,000 -1,020 Descending New York Center
03:57PM 41.7119 -77.0842 102° East 508 585 21,900 -1,800 Descending New York Center
03:58PM 41.6833 -76.9119 102° East 495 570 19,500 -2,520 Descending New York Center
03:59PM 41.6583 -76.7486 102° East 480 552 16,900 -2,520 Descending New York Center
04:00PM 41.6319 -76.6103 104° East 441 507 14,500 -2,820 Descending New York Center
04:01PM 41.6064 -76.4500 102° East 404 465 11,400 -2,100 Descending New York Center
04:02PM 41.5817 -76.3147 104° East 385 443 10,300 -1,020 Descending New York Center
04:03PM 41.5619 -76.1967 103° East 341 392 9,400 -1,080 Descending New York Center
04:04PM 41.5328 -76.1056 113° Southeast 303 349 8,200 -1,140 Descending New York Center
04:05PM 41.4975 -76.0114 117° Southeast 288 331 7,200 -1,020 Descending New York Center
04:06PM 41.4767 -75.9128 106° East 275 316 6,200 -1,080 Descending New York Center
04:07PM 41.4597 -75.8256 105° East 263 303 5,100 -1,140 Descending New York Center